sensor_id;sensor_type;location;lat;lon;timestamp;P1;durP1;ratioP1;P2;durP2;ratioP2
18726;SDS011;9492;51.888;5.186;2023-02-28T00:00:47;2.97;;;2.40;;
18726;SDS011;9492;51.888;5.186;2023-02-28T00:03:13;2.97;;;2.00;;
18726;SDS011;9492;51.888;5.186;2023-02-28T00:05:41;2.83;;;2.53;;
18726;SDS011;9492;51.888;5.186;2023-02-28T00:08:08;3.63;;;2.47;;
18726;SDS011;9492;51.888;5.186;2023-02-28T00:10:34;3.30;;;1.97;;
18726;SDS011;9492;51.888;5.186;2023-02-28T00:13:03;2.50;;;2.30;;
18726;SDS011;9492;51.888;5.186;2023-02-28T00:15:30;6.17;;;2.57;;
18726;SDS011;9492;51.888;5.186;2023-02-28T00:17:56;3.90;;;2.43;;
18726;SDS011;9492;51.888;5.186;2023-02-28T00:20:22;6.07;;;2.53;;
18726;SDS011;9492;51.888;5.186;2023-02-28T00:22:49;3.73;;;2.40;;
18726;SDS011;9492;51.888;5.186;2023-02-28T00:25:17;2.43;;;2.27;;
18726;SDS011;9492;51.888;5.186;2023-02-28T00:27:43;4.27;;;2.20;;
18726;SDS011;9492;51.888;5.186;2023-02-28T00:30:11;3.20;;;2.40;;
18726;SDS011;9492;51.888;5.186;2023-02-28T00:32:37;3.53;;;2.77;;
18726;SDS011;9492;51.888;5.186;2023-02-28T00:35:04;3.73;;;2.87;;
18726;SDS011;9492;51.888;5.186;2023-02-28T00:37:30;3.73;;;2.30;;
18726;SDS011;9492;51.888;5.186;2023-02-28T00:39:56;4.50;;;2.73;;
18726;SDS011;9492;51.888;5.186;2023-02-28T00:42:22;4.13;;;2.77;;
18726;SDS011;9492;51.888;5.186;2023-02-28T00:44:48;3.03;;;2.30;;
18726;SDS011;9492;51.888;5.186;2023-02-28T00:47:14;3.47;;;2.70;;
18726;SDS011;9492;51.888;5.186;2023-02-28T00:49:40;2.70;;;2.13;;
18726;SDS011;9492;51.888;5.186;2023-02-28T00:52:09;4.70;;;2.70;;
18726;SDS011;9492;51.888;5.186;2023-02-28T00:54:35;5.87;;;3.00;;
18726;SDS011;9492;51.888;5.186;2023-02-28T00:57:01;3.40;;;2.57;;
18726;SDS011;9492;51.888;5.186;2023-02-28T00:59:27;2.90;;;2.40;;
18726;SDS011;9492;51.888;5.186;2023-02-28T01:01:53;2.90;;;2.20;;
18726;SDS011;9492;51.888;5.186;2023-02-28T01:04:19;4.27;;;2.40;;
18726;SDS011;9492;51.888;5.186;2023-02-28T01:06:45;3.43;;;2.30;;
18726;SDS011;9492;51.888;5.186;2023-02-28T01:09:11;3.60;;;2.50;;
18726;SDS011;9492;51.888;5.186;2023-02-28T01:11:37;2.70;;;2.30;;
18726;SDS011;9492;51.888;5.186;2023-02-28T01:14:05;4.67;;;2.60;;
18726;SDS011;9492;51.888;5.186;2023-02-28T01:16:31;3.73;;;2.13;;
18726;SDS011;9492;51.888;5.186;2023-02-28T01:18:58;3.30;;;2.50;;
18726;SDS011;9492;51.888;5.186;2023-02-28T01:21:24;3.67;;;2.23;;
18726;SDS011;9492;51.888;5.186;2023-02-28T01:23:50;2.57;;;2.30;;
18726;SDS011;9492;51.888;5.186;2023-02-28T01:26:20;2.63;;;2.07;;
18726;SDS011;9492;51.888;5.186;2023-02-28T01:28:47;3.00;;;2.40;;
18726;SDS011;9492;51.888;5.186;2023-02-28T01:31:13;2.60;;;2.40;;
18726;SDS011;9492;51.888;5.186;2023-02-28T01:33:39;6.67;;;2.60;;
18726;SDS011;9492;51.888;5.186;2023-02-28T01:36:13;3.73;;;2.87;;
18726;SDS011;9492;51.888;5.186;2023-02-28T01:38:39;3.97;;;2.40;;
18726;SDS011;9492;51.888;5.186;2023-02-28T01:41:06;3.30;;;2.40;;
18726;SDS011;9492;51.888;5.186;2023-02-28T01:43:52;4.10;;;2.60;;
18726;SDS011;9492;51.888;5.186;2023-02-28T01:46:18;2.93;;;2.30;;
18726;SDS011;9492;51.888;5.186;2023-02-28T01:48:46;4.57;;;2.20;;
18726;SDS011;9492;51.888;5.186;2023-02-28T01:51:13;5.47;;;2.53;;
18726;SDS011;9492;51.888;5.186;2023-02-28T01:53:44;3.57;;;2.20;;
18726;SDS011;9492;51.888;5.186;2023-02-28T01:56:12;3.40;;;2.97;;
18726;SDS011;9492;51.888;5.186;2023-02-28T01:58:45;4.97;;;2.90;;
18726;SDS011;9492;51.888;5.186;2023-02-28T02:01:12;3.07;;;2.73;;
18726;SDS011;9492;51.888;5.186;2023-02-28T02:04:04;4.70;;;3.70;;
18726;SDS011;9492;51.888;5.186;2023-02-28T02:06:33;3.77;;;3.00;;
18726;SDS011;9492;51.888;5.186;2023-02-28T02:09:03;6.00;;;3.70;;
18726;SDS011;9492;51.888;5.186;2023-02-28T02:11:29;5.37;;;3.27;;
18726;SDS011;9492;51.888;5.186;2023-02-28T02:24:33;4.03;;;2.47;;
18726;SDS011;9492;51.888;5.186;2023-02-28T02:40:14;3.70;;;2.80;;
18726;SDS011;9492;51.888;5.186;2023-02-28T02:45:09;4.60;;;2.97;;
18726;SDS011;9492;51.888;5.186;2023-02-28T02:47:37;3.83;;;2.37;;
18726;SDS011;9492;51.888;5.186;2023-02-28T02:50:05;3.00;;;2.70;;
18726;SDS011;9492;51.888;5.186;2023-02-28T02:52:38;4.93;;;3.10;;
18726;SDS011;9492;51.888;5.186;2023-02-28T02:55:05;3.27;;;2.57;;
18726;SDS011;9492;51.888;5.186;2023-02-28T02:57:36;3.00;;;2.50;;
18726;SDS011;9492;51.888;5.186;2023-02-28T03:00:04;4.03;;;2.60;;
18726;SDS011;9492;51.888;5.186;2023-02-28T03:02:33;4.77;;;3.17;;
18726;SDS011;9492;51.888;5.186;2023-02-28T03:05:04;3.20;;;2.90;;
18726;SDS011;9492;51.888;5.186;2023-02-28T03:07:32;5.37;;;3.33;;
18726;SDS011;9492;51.888;5.186;2023-02-28T03:09:58;4.90;;;3.30;;
18726;SDS011;9492;51.888;5.186;2023-02-28T03:12:27;7.13;;;3.80;;
18726;SDS011;9492;51.888;5.186;2023-02-28T03:14:56;5.13;;;3.67;;
18726;SDS011;9492;51.888;5.186;2023-02-28T03:17:44;5.10;;;3.00;;
18726;SDS011;9492;51.888;5.186;2023-02-28T03:20:23;3.33;;;2.87;;
18726;SDS011;9492;51.888;5.186;2023-02-28T03:23:01;4.33;;;2.83;;
18726;SDS011;9492;51.888;5.186;2023-02-28T03:33:02;3.50;;;2.53;;
18726;SDS011;9492;51.888;5.186;2023-02-28T03:35:32;3.20;;;2.63;;
18726;SDS011;9492;51.888;5.186;2023-02-28T03:38:10;5.53;;;3.73;;
18726;SDS011;9492;51.888;5.186;2023-02-28T03:40:43;3.87;;;2.63;;
18726;SDS011;9492;51.888;5.186;2023-02-28T03:43:13;3.37;;;2.63;;
18726;SDS011;9492;51.888;5.186;2023-02-28T03:45:41;2.97;;;2.67;;
18726;SDS011;9492;51.888;5.186;2023-02-28T03:50:41;4.67;;;3.00;;
18726;SDS011;9492;51.888;5.186;2023-02-28T03:53:12;4.33;;;2.97;;
18726;SDS011;9492;51.888;5.186;2023-02-28T03:55:43;5.70;;;3.47;;
18726;SDS011;9492;51.888;5.186;2023-02-28T04:00:40;5.20;;;3.17;;
18726;SDS011;9492;51.888;5.186;2023-02-28T04:03:10;3.10;;;2.80;;
18726;SDS011;9492;51.888;5.186;2023-02-28T04:05:47;4.43;;;2.73;;
18726;SDS011;9492;51.888;5.186;2023-02-28T04:08:14;3.57;;;2.87;;
18726;SDS011;9492;51.888;5.186;2023-02-28T04:10:40;5.87;;;3.77;;
18726;SDS011;9492;51.888;5.186;2023-02-28T04:13:08;4.93;;;3.60;;
18726;SDS011;9492;51.888;5.186;2023-02-28T04:15:34;5.90;;;3.20;;
18726;SDS011;9492;51.888;5.186;2023-02-28T04:18:02;4.97;;;3.50;;
18726;SDS011;9492;51.888;5.186;2023-02-28T04:20:28;3.87;;;2.97;;
18726;SDS011;9492;51.888;5.186;2023-02-28T04:22:54;3.57;;;3.20;;
18726;SDS011;9492;51.888;5.186;2023-02-28T04:25:19;6.10;;;3.40;;
18726;SDS011;9492;51.888;5.186;2023-02-28T04:27:45;5.43;;;3.30;;
18726;SDS011;9492;51.888;5.186;2023-02-28T04:30:11;7.10;;;3.73;;
18726;SDS011;9492;51.888;5.186;2023-02-28T04:32:38;4.23;;;3.13;;
18726;SDS011;9492;51.888;5.186;2023-02-28T04:35:04;5.93;;;3.47;;
18726;SDS011;9492;51.888;5.186;2023-02-28T04:37:30;5.67;;;3.80;;
18726;SDS011;9492;51.888;5.186;2023-02-28T04:40:00;5.23;;;3.50;;
18726;SDS011;9492;51.888;5.186;2023-02-28T04:42:26;4.00;;;3.47;;
18726;SDS011;9492;51.888;5.186;2023-02-28T04:44:52;4.17;;;3.70;;
18726;SDS011;9492;51.888;5.186;2023-02-28T04:47:18;5.23;;;3.43;;
18726;SDS011;9492;51.888;5.186;2023-02-28T04:49:44;3.30;;;3.00;;
18726;SDS011;9492;51.888;5.186;2023-02-28T04:52:10;2.87;;;2.63;;
18726;SDS011;9492;51.888;5.186;2023-02-28T04:54:38;5.10;;;3.27;;
18726;SDS011;9492;51.888;5.186;2023-02-28T04:57:04;3.63;;;3.33;;
18726;SDS011;9492;51.888;5.186;2023-02-28T04:59:30;3.67;;;2.80;;
18726;SDS011;9492;51.888;5.186;2023-02-28T05:01:57;3.73;;;2.97;;
18726;SDS011;9492;51.888;5.186;2023-02-28T05:04:23;3.47;;;3.00;;
18726;SDS011;9492;51.888;5.186;2023-02-28T05:06:53;4.00;;;2.80;;
18726;SDS011;9492;51.888;5.186;2023-02-28T05:09:20;2.63;;;2.43;;
18726;SDS011;9492;51.888;5.186;2023-02-28T05:11:46;4.63;;;2.90;;
18726;SDS011;9492;51.888;5.186;2023-02-28T05:14:13;4.17;;;2.60;;
18726;SDS011;9492;51.888;5.186;2023-02-28T05:16:39;4.67;;;3.07;;
18726;SDS011;9492;51.888;5.186;2023-02-28T05:19:05;2.90;;;2.27;;
18726;SDS011;9492;51.888;5.186;2023-02-28T05:21:32;2.83;;;2.57;;
18726;SDS011;9492;51.888;5.186;2023-02-28T05:24:01;2.73;;;2.40;;
18726;SDS011;9492;51.888;5.186;2023-02-28T05:26:27;4.03;;;2.50;;
18726;SDS011;9492;51.888;5.186;2023-02-28T05:28:53;5.07;;;3.00;;
18726;SDS011;9492;51.888;5.186;2023-02-28T05:31:19;3.20;;;2.70;;
18726;SDS011;9492;51.888;5.186;2023-02-28T05:33:45;2.80;;;2.50;;
18726;SDS011;9492;51.888;5.186;2023-02-28T05:36:11;2.80;;;2.60;;
18726;SDS011;9492;51.888;5.186;2023-02-28T05:38:38;5.13;;;2.83;;
18726;SDS011;9492;51.888;5.186;2023-02-28T05:41:07;2.30;;;2.10;;
18726;SDS011;9492;51.888;5.186;2023-02-28T05:43:34;4.13;;;2.53;;
18726;SDS011;9492;51.888;5.186;2023-02-28T05:46:02;3.57;;;2.70;;
18726;SDS011;9492;51.888;5.186;2023-02-28T05:48:28;2.77;;;2.17;;
18726;SDS011;9492;51.888;5.186;2023-02-28T05:50:54;3.03;;;2.37;;
18726;SDS011;9492;51.888;5.186;2023-02-28T05:53:20;3.03;;;2.10;;
18726;SDS011;9492;51.888;5.186;2023-02-28T05:55:46;3.23;;;2.43;;
18726;SDS011;9492;51.888;5.186;2023-02-28T05:58:12;3.20;;;2.10;;
18726;SDS011;9492;51.888;5.186;2023-02-28T06:00:38;2.57;;;2.13;;
18726;SDS011;9492;51.888;5.186;2023-02-28T06:03:04;2.57;;;2.10;;
18726;SDS011;9492;51.888;5.186;2023-02-28T06:05:30;2.50;;;2.30;;
18726;SDS011;9492;51.888;5.186;2023-02-28T06:07:56;3.00;;;2.50;;
18726;SDS011;9492;51.888;5.186;2023-02-28T06:10:22;2.90;;;2.10;;
18726;SDS011;9492;51.888;5.186;2023-02-28T06:12:48;3.27;;;2.40;;
18726;SDS011;9492;51.888;5.186;2023-02-28T06:15:14;3.17;;;2.00;;
18726;SDS011;9492;51.888;5.186;2023-02-28T06:17:42;4.00;;;2.73;;
18726;SDS011;9492;51.888;5.186;2023-02-28T06:20:08;2.40;;;2.20;;
18726;SDS011;9492;51.888;5.186;2023-02-28T06:22:36;3.93;;;2.43;;
18726;SDS011;9492;51.888;5.186;2023-02-28T06:25:03;3.30;;;2.13;;
18726;SDS011;9492;51.888;5.186;2023-02-28T06:27:32;2.97;;;2.40;;
18726;SDS011;9492;51.888;5.186;2023-02-28T06:29:58;3.20;;;2.20;;
18726;SDS011;9492;51.888;5.186;2023-02-28T06:32:24;2.57;;;2.03;;
18726;SDS011;9492;51.888;5.186;2023-02-28T06:34:50;2.63;;;2.23;;
18726;SDS011;9492;51.888;5.186;2023-02-28T06:37:16;4.57;;;2.10;;
18726;SDS011;9492;51.888;5.186;2023-02-28T06:39:42;2.50;;;2.00;;
18726;SDS011;9492;51.888;5.186;2023-02-28T06:42:10;1.60;;;1.50;;
18726;SDS011;9492;51.888;5.186;2023-02-28T06:44:38;2.50;;;2.30;;
18726;SDS011;9492;51.888;5.186;2023-02-28T06:47:04;2.40;;;2.20;;
18726;SDS011;9492;51.888;5.186;2023-02-28T06:49:32;2.97;;;2.13;;
18726;SDS011;9492;51.888;5.186;2023-02-28T06:52:00;2.90;;;2.20;;
18726;SDS011;9492;51.888;5.186;2023-02-28T06:54:26;2.50;;;2.30;;
18726;SDS011;9492;51.888;5.186;2023-02-28T06:56:52;3.73;;;2.20;;
18726;SDS011;9492;51.888;5.186;2023-02-28T06:59:21;3.50;;;2.20;;
18726;SDS011;9492;51.888;5.186;2023-02-28T07:01:47;2.57;;;2.27;;
18726;SDS011;9492;51.888;5.186;2023-02-28T07:04:13;2.90;;;2.20;;
18726;SDS011;9492;51.888;5.186;2023-02-28T07:06:40;2.80;;;2.20;;
18726;SDS011;9492;51.888;5.186;2023-02-28T07:09:06;2.30;;;1.97;;
18726;SDS011;9492;51.888;5.186;2023-02-28T07:11:32;3.03;;;2.70;;
18726;SDS011;9492;51.888;5.186;2023-02-28T07:13:58;2.40;;;2.20;;
18726;SDS011;9492;51.888;5.186;2023-02-28T07:16:24;3.77;;;2.40;;
18726;SDS011;9492;51.888;5.186;2023-02-28T07:18:58;5.13;;;2.70;;
18726;SDS011;9492;51.888;5.186;2023-02-28T07:21:24;3.73;;;2.77;;
18726;SDS011;9492;51.888;5.186;2023-02-28T07:23:50;2.63;;;2.20;;
18726;SDS011;9492;51.888;5.186;2023-02-28T07:26:17;2.60;;;2.40;;
18726;SDS011;9492;51.888;5.186;2023-02-28T07:28:44;3.90;;;2.57;;
18726;SDS011;9492;51.888;5.186;2023-02-28T07:31:11;5.13;;;2.70;;
18726;SDS011;9492;51.888;5.186;2023-02-28T07:33:39;2.83;;;2.57;;
18726;SDS011;9492;51.888;5.186;2023-02-28T07:36:06;2.90;;;2.37;;
18726;SDS011;9492;51.888;5.186;2023-02-28T07:38:33;4.07;;;2.30;;
18726;SDS011;9492;51.888;5.186;2023-02-28T07:41:00;4.87;;;3.10;;
18726;SDS011;9492;51.888;5.186;2023-02-28T07:43:29;4.97;;;2.53;;
18726;SDS011;9492;51.888;5.186;2023-02-28T07:45:55;5.03;;;2.97;;
18726;SDS011;9492;51.888;5.186;2023-02-28T07:48:21;2.93;;;2.33;;
18726;SDS011;9492;51.888;5.186;2023-02-28T07:50:56;3.67;;;2.70;;
18726;SDS011;9492;51.888;5.186;2023-02-28T07:53:23;3.20;;;2.20;;
18726;SDS011;9492;51.888;5.186;2023-02-28T07:55:49;3.00;;;2.30;;
18726;SDS011;9492;51.888;5.186;2023-02-28T07:58:15;3.63;;;2.23;;
18726;SDS011;9492;51.888;5.186;2023-02-28T08:00:41;4.37;;;2.73;;
18726;SDS011;9492;51.888;5.186;2023-02-28T08:03:11;3.83;;;2.20;;
18726;SDS011;9492;51.888;5.186;2023-02-28T08:05:48;2.80;;;2.20;;
18726;SDS011;9492;51.888;5.186;2023-02-28T08:08:14;2.57;;;2.30;;
18726;SDS011;9492;51.888;5.186;2023-02-28T08:10:40;4.47;;;2.20;;
18726;SDS011;9492;51.888;5.186;2023-02-28T08:13:08;4.00;;;2.50;;
18726;SDS011;9492;51.888;5.186;2023-02-28T08:15:34;3.37;;;2.40;;
18726;SDS011;9492;51.888;5.186;2023-02-28T08:18:01;2.90;;;2.20;;
18726;SDS011;9492;51.888;5.186;2023-02-28T08:20:27;3.63;;;2.80;;
18726;SDS011;9492;51.888;5.186;2023-02-28T08:22:54;4.77;;;2.87;;
18726;SDS011;9492;51.888;5.186;2023-02-28T08:25:21;4.57;;;2.40;;
18726;SDS011;9492;51.888;5.186;2023-02-28T08:27:51;3.97;;;3.07;;
18726;SDS011;9492;51.888;5.186;2023-02-28T08:30:17;4.43;;;3.13;;
18726;SDS011;9492;51.888;5.186;2023-02-28T08:32:43;4.27;;;3.03;;
18726;SDS011;9492;51.888;5.186;2023-02-28T08:35:10;11.33;;;8.30;;
18726;SDS011;9492;51.888;5.186;2023-02-28T08:37:36;7.37;;;5.17;;
18726;SDS011;9492;51.888;5.186;2023-02-28T08:42:48;10.53;;;7.50;;
18726;SDS011;9492;51.888;5.186;2023-02-28T08:45:15;4.83;;;4.10;;
18726;SDS011;9492;51.888;5.186;2023-02-28T08:47:44;10.40;;;5.00;;
18726;SDS011;9492;51.888;5.186;2023-02-28T08:50:11;5.73;;;4.73;;
18726;SDS011;9492;51.888;5.186;2023-02-28T08:52:43;5.20;;;4.27;;
18726;SDS011;9492;51.888;5.186;2023-02-28T08:55:09;3.77;;;3.47;;
18726;SDS011;9492;51.888;5.186;2023-02-28T09:00:09;2.60;;;1.90;;
18726;SDS011;9492;51.888;5.186;2023-02-28T09:02:43;2.97;;;2.43;;
18726;SDS011;9492;51.888;5.186;2023-02-28T09:05:14;5.13;;;1.73;;
18726;SDS011;9492;51.888;5.186;2023-02-28T09:07:46;4.30;;;2.27;;
18726;SDS011;9492;51.888;5.186;2023-02-28T09:12:56;1.80;;;1.70;;
18726;SDS011;9492;51.888;5.186;2023-02-28T09:15:23;4.10;;;1.80;;
18726;SDS011;9492;51.888;5.186;2023-02-28T09:17:51;2.90;;;1.80;;
18726;SDS011;9492;51.888;5.186;2023-02-28T09:20:17;3.97;;;1.70;;
18726;SDS011;9492;51.888;5.186;2023-02-28T09:22:43;1.50;;;1.40;;
18726;SDS011;9492;51.888;5.186;2023-02-28T09:25:09;2.07;;;1.60;;
18726;SDS011;9492;51.888;5.186;2023-02-28T09:27:35;2.70;;;2.43;;
18726;SDS011;9492;51.888;5.186;2023-02-28T09:30:08;3.33;;;2.00;;
18726;SDS011;9492;51.888;5.186;2023-02-28T09:32:39;2.30;;;1.63;;
18726;SDS011;9492;51.888;5.186;2023-02-28T09:35:05;4.10;;;2.00;;
18726;SDS011;9492;51.888;5.186;2023-02-28T09:37:39;1.87;;;1.77;;
18726;SDS011;9492;51.888;5.186;2023-02-28T09:40:05;2.37;;;2.17;;
18726;SDS011;9492;51.888;5.186;2023-02-28T09:42:32;2.80;;;2.00;;
18726;SDS011;9492;51.888;5.186;2023-02-28T09:45:03;2.13;;;1.77;;
18726;SDS011;9492;51.888;5.186;2023-02-28T09:47:40;1.97;;;1.80;;
18726;SDS011;9492;51.888;5.186;2023-02-28T09:50:15;1.60;;;1.33;;
18726;SDS011;9492;51.888;5.186;2023-02-28T09:52:43;1.70;;;1.60;;
18726;SDS011;9492;51.888;5.186;2023-02-28T09:57:41;2.77;;;1.50;;
18726;SDS011;9492;51.888;5.186;2023-02-28T10:03:09;1.50;;;1.50;;
18726;SDS011;9492;51.888;5.186;2023-02-28T10:05:51;2.00;;;1.90;;
18726;SDS011;9492;51.888;5.186;2023-02-28T10:08:25;2.10;;;1.70;;
18726;SDS011;9492;51.888;5.186;2023-02-28T10:19:20;2.23;;;1.60;;
18726;SDS011;9492;51.888;5.186;2023-02-28T10:21:50;2.20;;;1.70;;
18726;SDS011;9492;51.888;5.186;2023-02-28T10:27:14;1.63;;;1.53;;
18726;SDS011;9492;51.888;5.186;2023-02-28T10:29:42;2.97;;;1.57;;
18726;SDS011;9492;51.888;5.186;2023-02-28T10:32:09;1.60;;;1.50;;
18726;SDS011;9492;51.888;5.186;2023-02-28T10:34:36;2.30;;;1.63;;
18726;SDS011;9492;51.888;5.186;2023-02-28T10:37:03;1.83;;;1.70;;
18726;SDS011;9492;51.888;5.186;2023-02-28T10:39:36;1.80;;;1.70;;
18726;SDS011;9492;51.888;5.186;2023-02-28T10:42:16;1.93;;;1.50;;
18726;SDS011;9492;51.888;5.186;2023-02-28T10:44:44;2.30;;;2.10;;
18726;SDS011;9492;51.888;5.186;2023-02-28T10:47:16;2.07;;;1.83;;
18726;SDS011;9492;51.888;5.186;2023-02-28T10:49:49;3.53;;;1.70;;
18726;SDS011;9492;51.888;5.186;2023-02-28T10:58:17;1.80;;;1.63;;
18726;SDS011;9492;51.888;5.186;2023-02-28T11:00:46;1.50;;;1.40;;
18726;SDS011;9492;51.888;5.186;2023-02-28T11:03:28;1.70;;;1.60;;
18726;SDS011;9492;51.888;5.186;2023-02-28T11:05:54;3.50;;;1.80;;
18726;SDS011;9492;51.888;5.186;2023-02-28T11:08:22;2.37;;;1.80;;
18726;SDS011;9492;51.888;5.186;2023-02-28T11:10:56;2.00;;;1.80;;
18726;SDS011;9492;51.888;5.186;2023-02-28T11:13:33;1.90;;;1.80;;
18726;SDS011;9492;51.888;5.186;2023-02-28T11:16:15;2.97;;;1.90;;
18726;SDS011;9492;51.888;5.186;2023-02-28T11:18:43;2.07;;;1.87;;
18726;SDS011;9492;51.888;5.186;2023-02-28T11:21:15;1.90;;;1.80;;
18726;SDS011;9492;51.888;5.186;2023-02-28T11:23:42;3.03;;;2.83;;
18726;SDS011;9492;51.888;5.186;2023-02-28T11:26:08;1.80;;;1.70;;
18726;SDS011;9492;51.888;5.186;2023-02-28T11:28:37;3.73;;;2.00;;
18726;SDS011;9492;51.888;5.186;2023-02-28T11:33:42;1.87;;;1.67;;
18726;SDS011;9492;51.888;5.186;2023-02-28T11:36:16;1.70;;;1.60;;
18726;SDS011;9492;51.888;5.186;2023-02-28T11:38:43;1.87;;;1.70;;
18726;SDS011;9492;51.888;5.186;2023-02-28T11:41:21;1.33;;;1.23;;
18726;SDS011;9492;51.888;5.186;2023-02-28T11:44:09;1.30;;;1.20;;
18726;SDS011;9492;51.888;5.186;2023-02-28T11:46:51;2.80;;;1.53;;
18726;SDS011;9492;51.888;5.186;2023-02-28T11:57:44;2.03;;;1.83;;
18726;SDS011;9492;51.888;5.186;2023-02-28T12:00:38;1.60;;;1.50;;
18726;SDS011;9492;51.888;5.186;2023-02-28T12:03:06;1.80;;;1.63;;
18726;SDS011;9492;51.888;5.186;2023-02-28T12:05:38;1.90;;;1.50;;
18726;SDS011;9492;51.888;5.186;2023-02-28T12:13:24;2.00;;;1.73;;
18726;SDS011;9492;51.888;5.186;2023-02-28T12:16:00;1.70;;;1.60;;
18726;SDS011;9492;51.888;5.186;2023-02-28T12:24:01;2.53;;;2.00;;
18726;SDS011;9492;51.888;5.186;2023-02-28T12:29:02;2.70;;;1.83;;
18726;SDS011;9492;51.888;5.186;2023-02-28T12:31:34;2.37;;;1.80;;
18726;SDS011;9492;51.888;5.186;2023-02-28T12:34:06;2.13;;;2.00;;
18726;SDS011;9492;51.888;5.186;2023-02-28T12:36:34;1.80;;;1.70;;
18726;SDS011;9492;51.888;5.186;2023-02-28T12:39:07;1.83;;;1.73;;
18726;SDS011;9492;51.888;5.186;2023-02-28T12:41:40;2.93;;;1.80;;
18726;SDS011;9492;51.888;5.186;2023-02-28T12:46:49;2.20;;;1.97;;
18726;SDS011;9492;51.888;5.186;2023-02-28T12:49:33;2.30;;;2.10;;
18726;SDS011;9492;51.888;5.186;2023-02-28T12:52:00;2.10;;;1.70;;
18726;SDS011;9492;51.888;5.186;2023-02-28T12:56:54;3.70;;;1.60;;
18726;SDS011;9492;51.888;5.186;2023-02-28T12:59:24;1.97;;;1.70;;
18726;SDS011;9492;51.888;5.186;2023-02-28T13:01:57;2.70;;;1.80;;
18726;SDS011;9492;51.888;5.186;2023-02-28T13:09:24;2.00;;;1.90;;
18726;SDS011;9492;51.888;5.186;2023-02-28T13:11:54;2.43;;;1.83;;
18726;SDS011;9492;51.888;5.186;2023-02-28T13:16:58;1.97;;;1.77;;
18726;SDS011;9492;51.888;5.186;2023-02-28T13:19:26;2.00;;;1.80;;
18726;SDS011;9492;51.888;5.186;2023-02-28T13:24:43;3.27;;;1.87;;
18726;SDS011;9492;51.888;5.186;2023-02-28T13:27:11;2.03;;;1.63;;
18726;SDS011;9492;51.888;5.186;2023-02-28T13:29:42;1.83;;;1.73;;
18726;SDS011;9492;51.888;5.186;2023-02-28T13:32:27;2.60;;;1.87;;
18726;SDS011;9492;51.888;5.186;2023-02-28T13:39:59;1.67;;;1.57;;
18726;SDS011;9492;51.888;5.186;2023-02-28T13:42:36;2.67;;;2.20;;
18726;SDS011;9492;51.888;5.186;2023-02-28T13:47:45;7.50;;;4.17;;
18726;SDS011;9492;51.888;5.186;2023-02-28T13:55:42;7.30;;;2.20;;
18726;SDS011;9492;51.888;5.186;2023-02-28T14:03:27;2.03;;;1.93;;
18726;SDS011;9492;51.888;5.186;2023-02-28T14:09:00;2.10;;;1.90;;
18726;SDS011;9492;51.888;5.186;2023-02-28T14:11:33;3.60;;;1.80;;
18726;SDS011;9492;51.888;5.186;2023-02-28T14:13:59;3.73;;;2.50;;
18726;SDS011;9492;51.888;5.186;2023-02-28T14:16:27;3.47;;;2.60;;
18726;SDS011;9492;51.888;5.186;2023-02-28T14:19:01;3.60;;;2.57;;
18726;SDS011;9492;51.888;5.186;2023-02-28T14:21:34;4.70;;;3.97;;
18726;SDS011;9492;51.888;5.186;2023-02-28T14:32:40;2.87;;;2.67;;
18726;SDS011;9492;51.888;5.186;2023-02-28T14:35:12;2.60;;;2.40;;
18726;SDS011;9492;51.888;5.186;2023-02-28T14:37:42;3.43;;;2.27;;
18726;SDS011;9492;51.888;5.186;2023-02-28T14:40:14;3.47;;;2.10;;
18726;SDS011;9492;51.888;5.186;2023-02-28T14:42:45;3.50;;;2.20;;
18726;SDS011;9492;51.888;5.186;2023-02-28T14:45:21;2.90;;;2.70;;
18726;SDS011;9492;51.888;5.186;2023-02-28T14:47:48;2.33;;;2.17;;
18726;SDS011;9492;51.888;5.186;2023-02-28T14:50:22;3.00;;;2.13;;
18726;SDS011;9492;51.888;5.186;2023-02-28T14:52:52;2.20;;;2.00;;
18726;SDS011;9492;51.888;5.186;2023-02-28T14:55:20;12.10;;;7.83;;
18726;SDS011;9492;51.888;5.186;2023-02-28T14:57:59;5.70;;;3.37;;
18726;SDS011;9492;51.888;5.186;2023-02-28T15:02:54;2.77;;;2.43;;
18726;SDS011;9492;51.888;5.186;2023-02-28T15:05:28;3.37;;;2.10;;
18726;SDS011;9492;51.888;5.186;2023-02-28T15:08:14;4.70;;;2.57;;
18726;SDS011;9492;51.888;5.186;2023-02-28T15:13:22;1.87;;;1.73;;
18726;SDS011;9492;51.888;5.186;2023-02-28T15:18:29;1.90;;;1.80;;
18726;SDS011;9492;51.888;5.186;2023-02-28T15:20:58;2.30;;;2.10;;
18726;SDS011;9492;51.888;5.186;2023-02-28T15:23:24;2.73;;;2.47;;
18726;SDS011;9492;51.888;5.186;2023-02-28T15:25:51;2.30;;;1.97;;
18726;SDS011;9492;51.888;5.186;2023-02-28T15:28:18;2.33;;;1.93;;
18726;SDS011;9492;51.888;5.186;2023-02-28T15:33:37;4.50;;;4.10;;
18726;SDS011;9492;51.888;5.186;2023-02-28T15:36:17;2.50;;;2.30;;
18726;SDS011;9492;51.888;5.186;2023-02-28T15:38:45;2.17;;;2.03;;
18726;SDS011;9492;51.888;5.186;2023-02-28T15:41:28;2.77;;;2.30;;
18726;SDS011;9492;51.888;5.186;2023-02-28T15:44:14;4.93;;;3.87;;
18726;SDS011;9492;51.888;5.186;2023-02-28T15:49:40;4.20;;;3.00;;
18726;SDS011;9492;51.888;5.186;2023-02-28T15:52:15;3.83;;;3.20;;
18726;SDS011;9492;51.888;5.186;2023-02-28T15:54:42;4.27;;;2.83;;
18726;SDS011;9492;51.888;5.186;2023-02-28T15:57:17;5.80;;;2.70;;
18726;SDS011;9492;51.888;5.186;2023-02-28T15:59:54;3.47;;;2.57;;
18726;SDS011;9492;51.888;5.186;2023-02-28T16:04:56;2.43;;;2.23;;
18726;SDS011;9492;51.888;5.186;2023-02-28T16:07:23;3.43;;;2.50;;
18726;SDS011;9492;51.888;5.186;2023-02-28T16:09:49;4.23;;;2.93;;
18726;SDS011;9492;51.888;5.186;2023-02-28T16:12:16;5.13;;;3.80;;
18726;SDS011;9492;51.888;5.186;2023-02-28T16:14:42;3.70;;;2.30;;
18726;SDS011;9492;51.888;5.186;2023-02-28T16:17:20;3.13;;;2.30;;
18726;SDS011;9492;51.888;5.186;2023-02-28T16:19:47;3.03;;;2.73;;
18726;SDS011;9492;51.888;5.186;2023-02-28T16:22:16;2.50;;;2.30;;
18726;SDS011;9492;51.888;5.186;2023-02-28T16:24:42;2.87;;;2.07;;
18726;SDS011;9492;51.888;5.186;2023-02-28T16:27:15;3.43;;;1.93;;
18726;SDS011;9492;51.888;5.186;2023-02-28T16:29:42;1.90;;;1.80;;
18726;SDS011;9492;51.888;5.186;2023-02-28T16:32:10;4.80;;;2.17;;
18726;SDS011;9492;51.888;5.186;2023-02-28T16:34:37;3.47;;;1.90;;
18726;SDS011;9492;51.888;5.186;2023-02-28T16:37:04;2.40;;;2.20;;
18726;SDS011;9492;51.888;5.186;2023-02-28T16:39:30;3.53;;;2.67;;
18726;SDS011;9492;51.888;5.186;2023-02-28T16:41:56;3.60;;;2.40;;
18726;SDS011;9492;51.888;5.186;2023-02-28T16:44:27;3.63;;;2.40;;
18726;SDS011;9492;51.888;5.186;2023-02-28T16:46:54;2.47;;;2.27;;
18726;SDS011;9492;51.888;5.186;2023-02-28T16:49:20;3.37;;;2.80;;
18726;SDS011;9492;51.888;5.186;2023-02-28T16:51:51;4.67;;;3.03;;
18726;SDS011;9492;51.888;5.186;2023-02-28T16:54:17;2.93;;;2.50;;
18726;SDS011;9492;51.888;5.186;2023-02-28T16:56:46;2.80;;;2.50;;
18726;SDS011;9492;51.888;5.186;2023-02-28T16:59:16;2.83;;;2.60;;
18726;SDS011;9492;51.888;5.186;2023-02-28T17:01:43;3.20;;;2.23;;
18726;SDS011;9492;51.888;5.186;2023-02-28T17:04:10;5.70;;;3.03;;
18726;SDS011;9492;51.888;5.186;2023-02-28T17:06:37;12.03;;;6.63;;
18726;SDS011;9492;51.888;5.186;2023-02-28T17:09:05;7.90;;;5.00;;
18726;SDS011;9492;51.888;5.186;2023-02-28T17:11:39;5.90;;;3.73;;
18726;SDS011;9492;51.888;5.186;2023-02-28T17:14:07;7.20;;;4.57;;
18726;SDS011;9492;51.888;5.186;2023-02-28T17:16:34;6.03;;;4.90;;
18726;SDS011;9492;51.888;5.186;2023-02-28T17:19:02;10.43;;;7.17;;
18726;SDS011;9492;51.888;5.186;2023-02-28T17:21:29;20.53;;;11.27;;
18726;SDS011;9492;51.888;5.186;2023-02-28T17:24:01;20.90;;;12.40;;
18726;SDS011;9492;51.888;5.186;2023-02-28T17:26:27;8.77;;;6.57;;
18726;SDS011;9492;51.888;5.186;2023-02-28T17:28:54;6.47;;;4.60;;
18726;SDS011;9492;51.888;5.186;2023-02-28T17:31:21;5.33;;;4.83;;
18726;SDS011;9492;51.888;5.186;2023-02-28T17:33:47;4.40;;;3.97;;
18726;SDS011;9492;51.888;5.186;2023-02-28T17:36:17;3.73;;;3.30;;
18726;SDS011;9492;51.888;5.186;2023-02-28T17:38:47;3.10;;;2.80;;
18726;SDS011;9492;51.888;5.186;2023-02-28T17:41:13;4.93;;;2.67;;
18726;SDS011;9492;51.888;5.186;2023-02-28T17:43:39;4.67;;;3.37;;
18726;SDS011;9492;51.888;5.186;2023-02-28T17:46:06;12.40;;;7.73;;